createdAt,value
2023-03-14T00:02:01.799Z,9.88
2023-03-14T00:04:31.071Z,9.83
2023-03-14T00:06:57.761Z,9.73
2023-03-14T00:09:24.471Z,9.67
2023-03-14T00:11:51.278Z,9.63
2023-03-14T00:14:17.976Z,9.76
2023-03-14T00:16:47.243Z,9.66
2023-03-14T00:19:13.901Z,9.71
2023-03-14T00:21:40.623Z,9.74
2023-03-14T00:24:08.178Z,9.73
2023-03-14T00:26:34.862Z,9.79
2023-03-14T00:29:03.988Z,9.70
2023-03-14T00:31:31.917Z,9.78
2023-03-14T00:33:58.586Z,9.79
2023-03-14T00:36:25.355Z,9.77
2023-03-14T00:38:52.905Z,9.69
2023-03-14T00:41:23.414Z,9.77
2023-03-14T00:43:50.606Z,9.85
2023-03-14T00:46:17.613Z,9.73
2023-03-14T00:48:46.695Z,9.76
2023-03-14T00:51:15.931Z,9.67
2023-03-14T00:53:44.567Z,9.80
2023-03-14T00:56:12.560Z,9.76
2023-03-14T00:58:39.413Z,9.74
2023-03-14T01:01:10.764Z,9.79
2023-03-14T01:03:37.656Z,9.79
2023-03-14T01:06:11.704Z,9.75
2023-03-14T01:08:38.743Z,9.76
2023-03-14T01:11:10.578Z,9.64
2023-03-14T01:13:37.817Z,9.67
2023-03-14T01:16:07.512Z,9.62
2023-03-14T01:18:38.660Z,9.63
2023-03-14T01:21:12.743Z,9.63
2023-03-14T01:23:39.499Z,9.59
2023-03-14T01:26:10.385Z,9.61
2023-03-14T01:28:37.806Z,9.60
2023-03-14T01:31:06.429Z,9.56
2023-03-14T01:33:33.347Z,9.66
2023-03-14T01:36:00.187Z,9.63
2023-03-14T01:38:27.241Z,9.62
2023-03-14T01:40:54.168Z,9.71
2023-03-14T01:44:37.321Z,9.72
2023-03-14T01:47:04.447Z,9.49
2023-03-14T01:49:34.697Z,9.35
2023-03-14T01:52:21.603Z,9.32
2023-03-14T01:54:54.288Z,9.17
2023-03-14T01:57:29.070Z,9.09
2023-03-14T02:00:17.860Z,8.93
2023-03-14T02:02:51.669Z,8.87
2023-03-14T02:05:23.675Z,8.76
2023-03-14T02:07:57.736Z,8.71
2023-03-14T02:10:30.443Z,8.61
2023-03-14T02:13:02.425Z,8.52
2023-03-14T02:15:52.439Z,8.41
2023-03-14T02:18:51.416Z,8.27
2023-03-14T02:22:14.582Z,8.35
2023-03-14T02:25:13.272Z,8.07
2023-03-14T02:27:43.768Z,7.96
2023-03-14T02:30:26.133Z,7.86
2023-03-14T02:32:56.377Z,7.70
2023-03-14T02:35:25.583Z,7.61
2023-03-14T02:38:06.554Z,7.56
2023-03-14T02:40:37.704Z,7.42
2023-03-14T02:43:04.448Z,7.25
2023-03-14T02:45:41.369Z,7.21
2023-03-14T02:48:18.206Z,7.07
2023-03-14T02:50:49.698Z,7.05
2023-03-14T02:53:23.162Z,6.99
2023-03-14T02:55:53.381Z,6.92
2023-03-14T02:58:22.969Z,6.89
2023-03-14T03:00:54.908Z,6.82
2023-03-14T03:03:23.474Z,6.79
2023-03-14T03:05:52.252Z,6.73
2023-03-14T03:08:27.467Z,6.63
2023-03-14T03:10:55.856Z,6.63
2023-03-14T03:13:22.505Z,6.60
2023-03-14T03:15:53.560Z,6.48
2023-03-14T03:18:20.352Z,6.49
2023-03-14T03:20:47.079Z,6.42
2023-03-14T03:23:15.376Z,6.40
2023-03-14T03:25:42.150Z,6.44
2023-03-14T03:28:09.080Z,6.45
2023-03-14T03:30:42.578Z,6.46
2023-03-14T03:33:09.590Z,6.45
2023-03-14T03:35:42.358Z,6.42
2023-03-14T03:38:12.810Z,6.45
2023-03-14T03:40:40.030Z,6.38
2023-03-14T03:43:08.112Z,6.38
2023-03-14T03:45:37.709Z,6.36
2023-03-14T03:48:05.825Z,6.44
2023-03-14T03:50:32.764Z,6.31
2023-03-14T03:52:59.670Z,6.32
2023-03-14T03:55:27.382Z,6.28
2023-03-14T03:57:56.842Z,6.22
2023-03-14T04:00:24.943Z,6.22
2023-03-14T04:02:51.868Z,6.22
2023-03-14T04:05:21.471Z,6.25
2023-03-14T04:07:54.889Z,6.18
2023-03-14T04:10:25.372Z,6.09
2023-03-14T04:13:24.851Z,6.09
2023-03-14T04:15:55.536Z,6.18
2023-03-14T04:18:27.728Z,6.11
2023-03-14T04:20:55.628Z,6.12
2023-03-14T04:23:26.618Z,6.20
2023-03-14T04:25:54.158Z,6.16
2023-03-14T04:28:22.718Z,6.22
2023-03-14T04:30:53.951Z,6.20
2023-03-14T04:33:23.479Z,6.29
2023-03-14T04:48:22.829Z,6.42
2023-03-14T04:50:52.400Z,6.39
2023-03-14T04:53:19.585Z,6.36
2023-03-14T04:55:50.626Z,6.35
2023-03-14T04:58:18.018Z,6.43
2023-03-14T05:00:45.801Z,6.47
2023-03-14T05:03:32.781Z,6.44
2023-03-14T05:06:00.006Z,6.46
2023-03-14T05:09:06.125Z,6.59
2023-03-14T05:11:52.801Z,6.51
2023-03-14T05:14:38.194Z,6.45
2023-03-14T05:17:21.039Z,6.47
2023-03-14T05:20:25.854Z,6.47
2023-03-14T05:23:12.981Z,6.47
2023-03-14T05:26:06.234Z,6.48
2023-03-14T05:28:49.498Z,6.48
2023-03-14T05:31:48.486Z,6.52
2023-03-14T05:34:50.723Z,6.46
2023-03-14T05:37:35.609Z,6.50
2023-03-14T05:40:20.438Z,6.66
2023-03-14T05:43:05.808Z,6.58
2023-03-14T05:45:34.509Z,6.64
2023-03-14T05:48:13.688Z,6.70
2023-03-14T05:51:05.533Z,6.62
2023-03-14T05:53:42.894Z,6.63
2023-03-14T05:56:20.620Z,6.74
2023-03-14T05:59:10.022Z,6.84
2023-03-14T06:01:46.058Z,6.92
2023-03-14T06:04:19.736Z,6.97
2023-03-14T06:06:53.293Z,7.03
2023-03-14T06:09:24.446Z,7.09
2023-03-14T06:11:53.556Z,7.19
2023-03-14T06:14:20.350Z,7.18
2023-03-14T06:16:51.781Z,7.22
2023-03-14T06:19:20.095Z,7.49
2023-03-14T06:21:47.352Z,7.36
2023-03-14T06:24:14.032Z,7.36
2023-03-14T06:26:45.441Z,7.44
2023-03-14T06:29:12.190Z,7.49
2023-03-14T06:31:39.023Z,7.57
2023-03-14T06:34:07.979Z,7.56
2023-03-14T06:36:34.753Z,7.62
2023-03-14T06:39:01.439Z,7.69
2023-03-14T06:41:30.889Z,7.76
2023-03-14T06:43:59.005Z,7.94
2023-03-14T06:46:26.765Z,8.03
2023-03-14T06:48:54.556Z,8.06
2023-03-14T06:51:21.306Z,8.19
2023-03-14T06:53:49.082Z,8.28
2023-03-14T06:56:17.125Z,8.35
2023-03-14T06:58:43.786Z,8.54
2023-03-14T07:01:32.304Z,8.85
2023-03-14T07:04:06.103Z,9.12
2023-03-14T07:06:34.987Z,9.38
2023-03-14T07:09:03.037Z,9.64
2023-03-14T07:11:30.901Z,9.80
2023-03-14T07:13:57.762Z,9.94
2023-03-14T07:16:25.405Z,10.06
2023-03-14T07:18:53.129Z,10.24
2023-03-14T07:21:19.898Z,10.33
2023-03-14T07:23:46.775Z,10.44
2023-03-14T07:26:14.496Z,10.43
2023-03-14T07:28:46.324Z,10.48
2023-03-14T07:31:17.001Z,10.55
2023-03-14T07:33:43.945Z,10.60
2023-03-14T07:36:11.043Z,10.65
2023-03-14T07:38:39.278Z,10.63
2023-03-14T07:41:24.166Z,10.74
2023-03-14T07:44:09.458Z,10.86
2023-03-14T07:46:36.170Z,10.98
2023-03-14T07:49:02.840Z,11.11
2023-03-14T07:51:31.678Z,11.15
2023-03-14T07:53:58.327Z,11.33
2023-03-14T07:56:25.128Z,11.39
2023-03-14T07:58:51.731Z,11.52
2023-03-14T08:01:18.373Z,11.62
2023-03-14T08:03:45.029Z,11.65
2023-03-14T08:06:11.659Z,11.68
2023-03-14T08:08:38.324Z,11.79
2023-03-14T08:11:11.823Z,11.82
2023-03-14T08:13:38.955Z,11.88
2023-03-14T08:16:06.130Z,12.01
2023-03-14T08:18:33.198Z,12.10
2023-03-14T08:20:59.899Z,12.14
2023-03-14T08:23:29.320Z,12.21
2023-03-14T08:25:55.992Z,12.26
2023-03-14T08:28:22.709Z,12.27
2023-03-14T08:30:49.484Z,12.28
2023-03-14T08:33:16.167Z,12.21
2023-03-14T08:35:43.059Z,12.18
2023-03-14T08:38:09.991Z,12.13
2023-03-14T08:40:36.611Z,12.03
2023-03-14T08:43:03.319Z,12.04
2023-03-14T08:45:30.048Z,12.06
2023-03-14T08:47:56.651Z,12.08
2023-03-14T08:50:24.369Z,12.11
2023-03-14T08:52:51.167Z,12.21
2023-03-14T08:55:17.972Z,12.20
2023-03-14T08:57:44.649Z,12.27
2023-03-14T09:00:15.184Z,12.39
2023-03-14T09:02:44.112Z,12.54
2023-03-14T09:05:11.462Z,12.62
2023-03-14T09:07:39.058Z,12.86
2023-03-14T09:10:06.799Z,12.92
2023-03-14T09:12:35.949Z,12.97
2023-03-14T09:15:02.849Z,13.14
2023-03-14T09:17:29.518Z,13.34
2023-03-14T09:19:57.619Z,13.47
2023-03-14T09:22:25.567Z,13.73
2023-03-14T09:24:52.418Z,13.99
2023-03-14T09:27:19.179Z,14.34
2023-03-14T09:29:45.815Z,14.67
2023-03-14T09:32:12.521Z,14.86
2023-03-14T09:34:39.188Z,14.97
2023-03-14T09:37:05.901Z,15.10
2023-03-14T09:39:32.642Z,15.10
2023-03-14T09:42:03.990Z,15.16
2023-03-14T09:44:33.985Z,15.53
2023-03-14T09:47:08.468Z,16.04
2023-03-14T09:49:37.897Z,16.38
2023-03-14T09:52:26.244Z,16.57
2023-03-14T09:55:00.456Z,16.72
2023-03-14T09:57:28.127Z,16.90
2023-03-14T09:59:58.341Z,17.07
2023-03-14T10:02:27.472Z,17.11
2023-03-14T10:04:55.412Z,17.30
2023-03-14T10:07:30.698Z,17.62
2023-03-14T10:09:58.484Z,18.12
2023-03-14T10:12:36.365Z,18.47
2023-03-14T10:15:06.471Z,18.50
2023-03-14T10:17:40.469Z,18.32
2023-03-14T10:20:07.562Z,18.20
2023-03-14T10:22:34.424Z,18.15
2023-03-14T10:25:08.282Z,18.11
2023-03-14T10:27:36.877Z,17.84
2023-03-14T10:30:09.314Z,17.49
2023-03-14T10:32:38.660Z,17.29
2023-03-14T10:35:14.553Z,17.12
2023-03-14T10:38:00.932Z,16.93
2023-03-14T10:40:41.903Z,16.70
2023-03-14T10:43:15.095Z,16.53
2023-03-14T10:45:44.365Z,16.32
2023-03-14T10:48:24.556Z,16.16
2023-03-14T10:50:55.737Z,16.10
2023-03-14T10:53:27.560Z,16.04
2023-03-14T10:55:56.957Z,16.07
2023-03-14T10:58:23.521Z,16.01
2023-03-14T11:01:16.927Z,15.93
2023-03-14T11:03:55.736Z,15.99
2023-03-14T11:06:30.105Z,15.97
2023-03-14T11:09:13.793Z,15.89
2023-03-14T11:11:41.112Z,15.82
2023-03-14T11:14:32.872Z,15.81
2023-03-14T11:17:18.448Z,15.68
2023-03-14T11:20:09.714Z,15.57
2023-03-14T11:22:49.116Z,15.17
2023-03-14T11:25:34.035Z,14.81
2023-03-14T11:28:16.784Z,14.65
2023-03-14T11:30:51.840Z,14.49
2023-03-14T11:33:26.221Z,14.37
2023-03-14T11:36:11.799Z,14.42
2023-03-14T11:38:47.603Z,14.48
2023-03-14T11:41:21.367Z,14.20
2023-03-14T11:43:50.156Z,14.11
2023-03-14T11:46:21.924Z,14.28
2023-03-14T11:49:03.342Z,14.64
2023-03-14T11:51:40.636Z,15.07
2023-03-14T12:37:45.563Z,13.40
2023-03-14T12:40:23.249Z,13.29
2023-03-14T12:43:11.582Z,13.10
2023-03-14T12:46:05.518Z,13.32
2023-03-14T12:48:35.308Z,13.20
2023-03-14T12:51:13.365Z,13.01
2023-03-14T12:53:49.867Z,13.08
2023-03-14T12:56:23.051Z,13.06
2023-03-14T12:59:32.158Z,13.08
2023-03-14T13:02:22.264Z,13.11
2023-03-14T13:05:14.917Z,13.09
2023-03-14T13:08:17.970Z,13.13
2023-03-14T13:10:58.167Z,13.21
2023-03-14T13:13:33.099Z,13.11
2023-03-14T13:16:33.347Z,13.11
2023-03-14T13:19:13.812Z,13.14
2023-03-14T13:28:25.047Z,12.86
2023-03-14T13:31:09.470Z,12.83
2023-03-14T13:37:06.155Z,12.67
2023-03-14T13:39:58.427Z,12.73
2023-03-14T13:46:26.928Z,12.66
2023-03-14T13:49:03.960Z,12.69
2023-03-14T13:51:43.702Z,12.70
2023-03-14T13:54:27.970Z,12.66
2023-03-14T13:57:06.388Z,12.64
2023-03-14T14:03:57.727Z,12.57
2023-03-14T14:09:36.736Z,12.44
2023-03-14T14:15:56.697Z,12.64
2023-03-14T14:21:52.401Z,12.52
2023-03-14T14:24:26.731Z,12.49
2023-03-14T14:27:05.425Z,12.41
2023-03-14T14:29:43.652Z,12.35
2023-03-14T14:32:16.861Z,12.37
2023-03-14T14:34:58.287Z,12.42
2023-03-14T14:37:30.824Z,12.51
2023-03-14T14:40:13.011Z,12.52
2023-03-14T14:42:47.672Z,12.55
2023-03-14T14:45:23.565Z,12.47
2023-03-14T14:52:35.871Z,12.13
2023-03-14T14:55:16.013Z,12.09
2023-03-14T14:57:54.535Z,12.05
2023-03-14T15:00:30.699Z,11.96
2023-03-14T15:03:03.518Z,11.84
2023-03-14T15:05:33.471Z,11.76
2023-03-14T15:08:18.270Z,11.78
2023-03-14T15:10:50.367Z,11.83
2023-03-14T15:13:28.003Z,11.95
2023-03-14T15:16:01.187Z,11.98
2023-03-14T15:18:35.917Z,11.98
2023-03-14T15:21:14.480Z,11.96
2023-03-14T15:23:42.037Z,11.90
2023-03-14T15:26:20.260Z,11.90
2023-03-14T15:28:52.076Z,11.84
2023-03-14T15:31:32.908Z,11.84
2023-03-14T15:34:02.635Z,11.79
2023-03-14T15:36:33.964Z,11.80
2023-03-14T15:39:11.012Z,11.78
2023-03-14T15:41:38.164Z,11.73
2023-03-14T15:44:07.038Z,11.69
2023-03-14T15:46:35.805Z,11.60
2023-03-14T15:49:07.881Z,11.52
2023-03-14T15:51:36.406Z,11.43
2023-03-14T15:54:05.745Z,11.43
2023-03-14T15:56:39.989Z,11.41
2023-03-14T15:59:07.357Z,11.42
2023-03-14T16:01:34.175Z,11.42
2023-03-14T16:04:04.670Z,11.45
2023-03-14T16:06:36.513Z,11.44
2023-03-14T16:09:03.736Z,11.43
2023-03-14T16:11:38.371Z,11.39
2023-03-14T16:14:09.532Z,11.43
2023-03-14T16:16:38.291Z,11.37
2023-03-14T16:19:09.674Z,11.37
2023-03-14T16:21:39.151Z,11.31
2023-03-14T16:24:08.796Z,11.30
2023-03-14T16:26:37.506Z,11.25
2023-03-14T16:29:04.694Z,11.12
2023-03-14T16:31:31.916Z,11.15
2023-03-14T16:34:03.804Z,11.08
2023-03-14T16:36:35.738Z,11.08
2023-03-14T16:39:04.481Z,11.04
2023-03-14T16:41:31.867Z,10.97
2023-03-14T16:44:13.621Z,10.94
2023-03-14T16:46:42.248Z,10.91
2023-03-14T16:49:09.009Z,10.92
2023-03-14T16:51:42.080Z,10.84
2023-03-14T16:54:16.662Z,10.79
2023-03-14T16:56:45.395Z,10.78
2023-03-14T17:01:43.017Z,10.73
2023-03-14T17:04:14.974Z,10.70
2023-03-14T17:06:50.218Z,10.70
2023-03-14T17:09:24.024Z,10.66
2023-03-14T17:11:58.712Z,10.60
2023-03-14T17:14:29.297Z,10.58
2023-03-14T17:16:56.471Z,10.50
2023-03-14T17:19:24.039Z,10.46
2023-03-14T17:21:54.929Z,10.41
2023-03-14T17:24:24.747Z,10.40
2023-03-14T17:26:54.720Z,10.40
2023-03-14T17:29:23.766Z,10.22
2023-03-14T17:31:53.975Z,10.24
2023-03-14T17:34:25.060Z,10.27
2023-03-14T17:37:10.758Z,10.23
2023-03-14T17:39:39.556Z,10.21
2023-03-14T17:42:26.327Z,10.20
2023-03-14T17:44:55.523Z,10.12
2023-03-14T17:47:24.315Z,10.08
2023-03-14T17:49:51.058Z,10.08
2023-03-14T17:52:20.354Z,10.05
2023-03-14T17:54:47.404Z,10.14
2023-03-14T17:57:18.103Z,10.07
2023-03-14T17:59:50.406Z,10.04
2023-03-14T18:02:18.439Z,10.00
2023-03-14T18:04:52.359Z,10.02
2023-03-14T18:07:20.814Z,10.02
2023-03-14T18:09:51.364Z,10.05
2023-03-14T18:12:23.353Z,10.04
2023-03-14T18:14:52.436Z,10.03
2023-03-14T18:17:38.230Z,10.02
2023-03-14T18:20:10.107Z,10.07
2023-03-14T18:22:37.287Z,10.07
2023-03-14T18:25:05.437Z,10.09
2023-03-14T18:27:33.971Z,10.07
2023-03-14T18:30:01.024Z,10.15
2023-03-14T18:32:27.992Z,10.10
2023-03-14T18:34:56.091Z,10.11
2023-03-14T18:37:22.828Z,9.97
2023-03-14T18:39:53.186Z,9.93
2023-03-14T18:42:20.849Z,9.96
2023-03-14T18:44:50.112Z,9.96
2023-03-14T18:47:20.296Z,9.89
2023-03-14T18:49:49.256Z,9.92
2023-03-14T18:52:17.921Z,9.92
2023-03-14T18:54:47.063Z,9.89
2023-03-14T18:57:18.135Z,9.92
2023-03-14T18:59:48.469Z,9.89
2023-03-14T19:02:16.652Z,9.97
2023-03-14T19:04:44.140Z,10.20
2023-03-14T19:07:14.064Z,10.53
2023-03-14T19:09:51.080Z,10.66
2023-03-14T19:12:19.058Z,10.85
2023-03-14T19:14:51.472Z,10.95
2023-03-14T19:17:19.697Z,11.06
2023-03-14T19:19:48.898Z,11.13
2023-03-14T19:22:17.039Z,11.14
2023-03-14T19:24:44.278Z,11.14
2023-03-14T19:27:12.230Z,11.09
2023-03-14T19:29:42.398Z,11.08
2023-03-14T19:32:13.639Z,11.22
2023-03-14T19:34:44.151Z,11.15
2023-03-14T19:37:22.297Z,11.15
2023-03-14T19:39:54.253Z,11.10
2023-03-14T19:42:22.186Z,11.11
2023-03-14T19:44:56.990Z,11.12
2023-03-14T19:47:30.191Z,11.07
2023-03-14T19:50:03.838Z,11.15
2023-03-14T19:56:37.236Z,11.12
2023-03-14T19:59:20.580Z,11.10
2023-03-14T20:05:11.754Z,11.02
2023-03-14T20:08:04.796Z,11.07
2023-03-14T20:11:02.618Z,10.96
2023-03-14T20:13:34.674Z,10.97
2023-03-14T20:16:12.676Z,10.95
2023-03-14T20:18:44.546Z,10.91
2023-03-14T20:21:21.881Z,10.77
2023-03-14T20:23:58.948Z,10.82
2023-03-14T20:26:37.027Z,10.90
2023-03-14T20:30:00.121Z,10.79
2023-03-14T20:36:03.691Z,10.71
2023-03-14T20:38:38.946Z,10.68
2023-03-14T20:41:19.977Z,10.62
2023-03-14T20:44:17.293Z,10.50
2023-03-14T20:46:55.688Z,10.35
2023-03-14T20:49:31.924Z,10.42
2023-03-14T20:52:02.618Z,10.39
2023-03-14T20:54:54.706Z,10.27
2023-03-14T20:57:29.290Z,10.24
2023-03-14T21:00:09.029Z,10.21
2023-03-14T21:07:43.099Z,10.14
2023-03-14T21:10:31.853Z,10.11
2023-03-14T21:20:43.384Z,9.94
2023-03-14T21:23:31.746Z,9.91
2023-03-14T21:29:42.336Z,9.75
2023-03-14T21:39:34.560Z,9.84
2023-03-14T21:42:21.098Z,9.77
2023-03-14T21:48:14.973Z,9.62
2023-03-14T22:07:00.450Z,9.59
2023-03-14T22:09:40.519Z,9.49
2023-03-14T22:12:19.693Z,9.48
2023-03-14T22:15:33.325Z,9.52
2023-03-14T22:22:20.500Z,9.43
2023-03-14T22:25:04.246Z,9.48
2023-03-14T22:57:32.839Z,9.58
2023-03-14T23:33:05.044Z,9.34
2023-03-14T23:55:17.900Z,9.19
